sensor_id;sensor_type;location;lat;lon;timestamp;pressure;altitude;pressure_sealevel;temperature;humidity
38530;BME280;24301;54.332;48.386;2023-09-08T00:01:43;98581.88;;;6.84;85.92
38530;BME280;24301;54.332;48.386;2023-09-08T00:04:09;98585.31;;;6.87;85.22
38530;BME280;24301;54.332;48.386;2023-09-08T00:06:35;98575.72;;;6.89;85.62
38530;BME280;24301;54.332;48.386;2023-09-08T00:09:02;98574.00;;;6.88;85.81
38530;BME280;24301;54.332;48.386;2023-09-08T00:11:29;98579.25;;;6.87;85.45
38530;BME280;24301;54.332;48.386;2023-09-08T00:13:54;98574.88;;;6.87;85.32
38530;BME280;24301;54.332;48.386;2023-09-08T00:16:20;98572.25;;;6.87;85.44
38530;BME280;24301;54.332;48.386;2023-09-08T00:18:46;98568.78;;;6.85;85.38
38530;BME280;24301;54.332;48.386;2023-09-08T00:21:12;98568.81;;;6.84;85.46
38530;BME280;24301;54.332;48.386;2023-09-08T00:23:38;98571.41;;;6.81;85.48
38530;BME280;24301;54.332;48.386;2023-09-08T00:26:04;98566.25;;;6.76;85.06
38530;BME280;24301;54.332;48.386;2023-09-08T00:28:30;98574.94;;;6.76;85.40
38530;BME280;24301;54.332;48.386;2023-09-08T00:30:56;98567.13;;;6.72;85.26
38530;BME280;24301;54.332;48.386;2023-09-08T00:33:21;98574.97;;;6.72;85.36
38530;BME280;24301;54.332;48.386;2023-09-08T00:35:51;98564.53;;;6.66;84.83
38530;BME280;24301;54.332;48.386;2023-09-08T00:38:26;98563.69;;;6.60;85.15
38530;BME280;24301;54.332;48.386;2023-09-08T00:40:52;98565.44;;;6.61;84.91
38530;BME280;24301;54.332;48.386;2023-09-08T00:43:18;98574.16;;;6.60;85.12
38530;BME280;24301;54.332;48.386;2023-09-08T00:45:45;98571.56;;;6.57;84.87
38530;BME280;24301;54.332;48.386;2023-09-08T00:48:12;98562.84;;;6.54;85.08
38530;BME280;24301;54.332;48.386;2023-09-08T00:50:39;98569.81;;;6.55;84.85
38530;BME280;24301;54.332;48.386;2023-09-08T00:53:06;98560.25;;;6.52;85.18
38530;BME280;24301;54.332;48.386;2023-09-08T00:55:32;98557.66;;;6.51;85.30
38530;BME280;24301;54.332;48.386;2023-09-08T00:57:59;98567.22;;;6.53;85.73
38530;BME280;24301;54.332;48.386;2023-09-08T01:00:26;98564.63;;;6.50;85.55
38530;BME280;24301;54.332;48.386;2023-09-08T01:02:52;98566.34;;;6.50;84.94
38530;BME280;24301;54.332;48.386;2023-09-08T01:05:19;98567.25;;;6.47;85.91
38530;BME280;24301;54.332;48.386;2023-09-08T01:07:46;98561.16;;;6.46;85.60
38530;BME280;24301;54.332;48.386;2023-09-08T01:10:14;98563.78;;;6.45;85.41
38530;BME280;24301;54.332;48.386;2023-09-08T01:12:41;98567.25;;;6.47;85.97
38530;BME280;24301;54.332;48.386;2023-09-08T01:15:07;98562.03;;;6.45;85.40
38530;BME280;24301;54.332;48.386;2023-09-08T01:17:33;98557.72;;;6.38;85.50
38530;BME280;24301;54.332;48.386;2023-09-08T01:25:21;98562.91;;;6.49;86.33
38530;BME280;24301;54.332;48.386;2023-09-08T01:27:53;98565.47;;;6.51;85.52
38530;BME280;24301;54.332;48.386;2023-09-08T01:30:25;98569.81;;;6.55;85.57
38530;BME280;24301;54.332;48.386;2023-09-08T01:32:53;98561.16;;;6.48;86.20
38530;BME280;24301;54.332;48.386;2023-09-08T01:35:20;98555.94;;;6.46;85.37
38530;BME280;24301;54.332;48.386;2023-09-08T01:37:47;98562.03;;;6.50;85.55
38530;BME280;24301;54.332;48.386;2023-09-08T01:40:15;98558.53;;;6.50;85.49
38530;BME280;24301;54.332;48.386;2023-09-08T01:42:42;98552.44;;;6.51;85.45
38530;BME280;24301;54.332;48.386;2023-09-08T01:45:08;98547.19;;;6.54;85.59
38530;BME280;24301;54.332;48.386;2023-09-08T01:47:34;98550.69;;;6.54;84.92
38530;BME280;24301;54.332;48.386;2023-09-08T01:50:00;98548.06;;;6.54;85.70
38530;BME280;24301;54.332;48.386;2023-09-08T01:52:29;98555.88;;;6.57;85.11
38530;BME280;24301;54.332;48.386;2023-09-08T01:55:00;98548.03;;;6.56;85.12
38530;BME280;24301;54.332;48.386;2023-09-08T01:57:30;98547.19;;;6.55;84.84
38530;BME280;24301;54.332;48.386;2023-09-08T01:59:56;98548.03;;;6.57;84.89
38530;BME280;24301;54.332;48.386;2023-09-08T02:02:22;98548.00;;;6.64;84.67
38530;BME280;24301;54.332;48.386;2023-09-08T02:04:48;98547.13;;;6.71;84.41
38530;BME280;24301;54.332;48.386;2023-09-08T02:07:14;98549.66;;;6.80;84.67
38530;BME280;24301;54.332;48.386;2023-09-08T02:09:40;98550.47;;;6.90;84.50
38530;BME280;24301;54.332;48.386;2023-09-08T02:12:07;98542.50;;;7.10;83.95
38530;BME280;24301;54.332;48.386;2023-09-08T02:14:36;98546.63;;;7.39;84.05
38530;BME280;24301;54.332;48.386;2023-09-08T02:17:03;98542.22;;;7.47;83.07
38530;BME280;24301;54.332;48.386;2023-09-08T02:19:29;98549.97;;;7.58;82.72
38530;BME280;24301;54.332;48.386;2023-09-08T02:21:55;98545.50;;;7.70;82.13
38530;BME280;24301;54.332;48.386;2023-09-08T02:24:21;98545.13;;;8.05;82.13
38530;BME280;24301;54.332;48.386;2023-09-08T02:26:47;98549.91;;;8.43;81.29
38530;BME280;24301;54.332;48.386;2023-09-08T02:29:13;98537.59;;;8.54;80.16
38530;BME280;24301;54.332;48.386;2023-09-08T02:31:42;98536.84;;;8.40;78.79
38530;BME280;24301;54.332;48.386;2023-09-08T02:34:09;98531.72;;;8.32;78.51
38530;BME280;24301;54.332;48.386;2023-09-08T02:36:36;98538.75;;;8.28;78.19
38530;BME280;24301;54.332;48.386;2023-09-08T02:39:02;98534.38;;;8.29;78.13
38530;BME280;24301;54.332;48.386;2023-09-08T02:41:29;98536.13;;;8.28;78.25
38530;BME280;24301;54.332;48.386;2023-09-08T02:43:56;98526.50;;;8.30;77.79
38530;BME280;24301;54.332;48.386;2023-09-08T02:46:22;98526.34;;;8.43;77.81
38530;BME280;24301;54.332;48.386;2023-09-08T02:48:48;98525.34;;;8.56;77.38
38530;BME280;24301;54.332;48.386;2023-09-08T02:51:14;98526.00;;;8.71;77.21
38530;BME280;24301;54.332;48.386;2023-09-08T02:53:40;98524.06;;;8.85;76.64
38530;BME280;24301;54.332;48.386;2023-09-08T02:56:06;98532.81;;;9.39;76.44
38530;BME280;24301;54.332;48.386;2023-09-08T02:58:32;98521.31;;;10.42;75.34
38530;BME280;24301;54.332;48.386;2023-09-08T03:01:14;98518.84;;;10.77;71.95
38530;BME280;24301;54.332;48.386;2023-09-08T03:03:42;98525.00;;;10.76;71.58
38530;BME280;24301;54.332;48.386;2023-09-08T03:06:10;98519.91;;;10.68;70.83
38530;BME280;24301;54.332;48.386;2023-09-08T03:08:43;98529.81;;;10.55;69.74
38530;BME280;24301;54.332;48.386;2023-09-08T03:11:09;98519.59;;;10.41;70.43
38530;BME280;24301;54.332;48.386;2023-09-08T03:13:35;98526.72;;;10.33;70.38
38530;BME280;24301;54.332;48.386;2023-09-08T03:16:07;98528.59;;;10.28;70.06
38530;BME280;24301;54.332;48.386;2023-09-08T03:18:34;98527.13;;;10.13;70.09
38530;BME280;24301;54.332;48.386;2023-09-08T03:21:03;98531.06;;;9.91;70.37
38530;BME280;24301;54.332;48.386;2023-09-08T03:23:40;98526.91;;;9.80;70.26
38530;BME280;24301;54.332;48.386;2023-09-08T03:26:07;98526.19;;;9.68;70.53
38530;BME280;24301;54.332;48.386;2023-09-08T03:28:34;98520.28;;;9.57;70.64
38530;BME280;24301;54.332;48.386;2023-09-08T03:31:06;98516.09;;;9.46;71.03
38530;BME280;24301;54.332;48.386;2023-09-08T03:33:41;98509.81;;;9.57;71.39
38530;BME280;24301;54.332;48.386;2023-09-08T03:36:08;98508.91;;;9.56;71.18
38530;BME280;24301;54.332;48.386;2023-09-08T03:38:35;98516.66;;;9.66;71.12
38530;BME280;24301;54.332;48.386;2023-09-08T03:41:03;98517.38;;;9.74;70.89
38530;BME280;24301;54.332;48.386;2023-09-08T03:43:31;98518.03;;;9.85;71.01
38530;BME280;24301;54.332;48.386;2023-09-08T03:45:57;98524.91;;;9.91;70.51
38530;BME280;24301;54.332;48.386;2023-09-08T03:48:23;98516.06;;;9.98;70.22
38530;BME280;24301;54.332;48.386;2023-09-08T03:50:49;98513.31;;;10.04;70.15
38530;BME280;24301;54.332;48.386;2023-09-08T03:53:16;98516.69;;;10.11;70.04
38530;BME280;24301;54.332;48.386;2023-09-08T03:55:42;98515.03;;;10.05;69.80
38530;BME280;24301;54.332;48.386;2023-09-08T03:58:08;98518.50;;;10.06;69.71
38530;BME280;24301;54.332;48.386;2023-09-08T04:00:34;98513.38;;;10.01;69.53
38530;BME280;24301;54.332;48.386;2023-09-08T04:03:01;98516.09;;;9.95;69.67
38530;BME280;24301;54.332;48.386;2023-09-08T04:05:27;98516.22;;;9.89;69.74
38530;BME280;24301;54.332;48.386;2023-09-08T04:07:53;98513.84;;;9.76;69.45
38530;BME280;24301;54.332;48.386;2023-09-08T04:10:21;98517.47;;;9.68;69.83
38530;BME280;24301;54.332;48.386;2023-09-08T04:12:47;98520.19;;;9.63;69.98
38530;BME280;24301;54.332;48.386;2023-09-08T04:15:13;98517.47;;;9.68;70.11
38530;BME280;24301;54.332;48.386;2023-09-08T04:17:39;98519.16;;;9.70;69.89
38530;BME280;24301;54.332;48.386;2023-09-08T04:20:06;98523.44;;;9.77;70.31
38530;BME280;24301;54.332;48.386;2023-09-08T04:22:34;98522.06;;;10.03;70.13
38530;BME280;24301;54.332;48.386;2023-09-08T04:25:02;98512.94;;;11.05;69.66
38530;BME280;24301;54.332;48.386;2023-09-08T04:27:32;98513.47;;;12.52;66.58
38530;BME280;24301;54.332;48.386;2023-09-08T04:29:59;98509.31;;;12.73;63.93
38530;BME280;24301;54.332;48.386;2023-09-08T04:32:25;98506.53;;;12.48;63.05
38530;BME280;24301;54.332;48.386;2023-09-08T04:34:52;98502.44;;;12.39;63.25
38530;BME280;24301;54.332;48.386;2023-09-08T04:37:21;98512.00;;;12.42;62.77
38530;BME280;24301;54.332;48.386;2023-09-08T04:39:47;98498.91;;;12.39;62.61
38530;BME280;24301;54.332;48.386;2023-09-08T04:42:13;98502.94;;;12.50;62.47
38530;BME280;24301;54.332;48.386;2023-09-08T04:44:40;98497.97;;;12.70;61.79
38530;BME280;24301;54.332;48.386;2023-09-08T04:47:07;98497.91;;;13.28;61.07
38530;BME280;24301;54.332;48.386;2023-09-08T04:49:34;98496.78;;;13.62;59.70
38530;BME280;24301;54.332;48.386;2023-09-08T04:52:00;98493.38;;;14.10;58.77
38530;BME280;24301;54.332;48.386;2023-09-08T04:54:27;98491.50;;;16.31;56.01
38530;BME280;24301;54.332;48.386;2023-09-08T04:56:55;98486.16;;;18.95;51.37
38530;BME280;24301;54.332;48.386;2023-09-08T04:59:22;98483.44;;;21.58;46.01
38530;BME280;24301;54.332;48.386;2023-09-08T05:01:51;98481.31;;;23.64;41.23
38530;BME280;24301;54.332;48.386;2023-09-08T05:04:18;98482.44;;;25.21;37.98
38530;BME280;24301;54.332;48.386;2023-09-08T05:06:45;98474.88;;;26.33;35.19
38530;BME280;24301;54.332;48.386;2023-09-08T05:09:12;98482.28;;;26.50;33.60
38530;BME280;24301;54.332;48.386;2023-09-08T05:11:40;98476.69;;;27.53;32.19
38530;BME280;24301;54.332;48.386;2023-09-08T05:14:06;98476.19;;;28.17;30.39
38530;BME280;24301;54.332;48.386;2023-09-08T05:16:32;98465.69;;;26.14;30.63
38530;BME280;24301;54.332;48.386;2023-09-08T05:19:22;98478.59;;;24.00;33.43
38530;BME280;24301;54.332;48.386;2023-09-08T05:21:54;98480.88;;;22.60;34.50
38530;BME280;24301;54.332;48.386;2023-09-08T05:24:20;98463.47;;;21.23;36.25
38530;BME280;24301;54.332;48.386;2023-09-08T05:26:46;98480.44;;;19.95;38.57
38530;BME280;24301;54.332;48.386;2023-09-08T05:29:13;98482.66;;;19.11;39.57
38530;BME280;24301;54.332;48.386;2023-09-08T05:31:39;98479.44;;;18.56;40.61
38530;BME280;24301;54.332;48.386;2023-09-08T05:34:06;98476.31;;;17.98;41.29
38530;BME280;24301;54.332;48.386;2023-09-08T05:36:34;98472.69;;;17.30;42.66
38530;BME280;24301;54.332;48.386;2023-09-08T05:39:02;98478.59;;;16.81;43.30
38530;BME280;24301;54.332;48.386;2023-09-08T05:41:29;98475.50;;;16.52;44.15
38530;BME280;24301;54.332;48.386;2023-09-08T05:43:58;98474.56;;;16.34;44.75
38530;BME280;24301;54.332;48.386;2023-09-08T05:46:24;98475.16;;;16.41;44.95
38530;BME280;24301;54.332;48.386;2023-09-08T05:48:50;98467.75;;;16.28;44.96
38530;BME280;24301;54.332;48.386;2023-09-08T05:51:16;98463.47;;;16.26;45.36
38530;BME280;24301;54.332;48.386;2023-09-08T05:53:42;98467.25;;;16.20;45.19
38530;BME280;24301;54.332;48.386;2023-09-08T05:56:10;98469.91;;;16.20;45.40
38530;BME280;24301;54.332;48.386;2023-09-08T05:58:37;98470.34;;;16.49;45.68
38530;BME280;24301;54.332;48.386;2023-09-08T06:01:04;98472.00;;;16.71;44.92
38530;BME280;24301;54.332;48.386;2023-09-08T06:03:31;98471.91;;;16.53;45.07
38530;BME280;24301;54.332;48.386;2023-09-08T06:05:57;98457.59;;;16.19;45.37
38530;BME280;24301;54.332;48.386;2023-09-08T06:08:23;98470.53;;;15.85;46.03
38530;BME280;24301;54.332;48.386;2023-09-08T06:10:50;98474.78;;;15.69;46.81
38530;BME280;24301;54.332;48.386;2023-09-08T06:13:17;98474.56;;;15.73;46.73
38530;BME280;24301;54.332;48.386;2023-09-08T06:15:43;98471.53;;;15.83;47.02
38530;BME280;24301;54.332;48.386;2023-09-08T06:18:11;98474.34;;;15.79;47.31
38530;BME280;24301;54.332;48.386;2023-09-08T06:20:44;98465.47;;;15.80;47.63
38530;BME280;24301;54.332;48.386;2023-09-08T06:23:10;98469.59;;;15.86;47.45
38530;BME280;24301;54.332;48.386;2023-09-08T06:25:36;98467.16;;;16.02;47.46
38530;BME280;24301;54.332;48.386;2023-09-08T06:28:03;98466.03;;;16.08;47.02
38530;BME280;24301;54.332;48.386;2023-09-08T06:30:29;98457.59;;;16.19;47.11
38530;BME280;24301;54.332;48.386;2023-09-08T06:32:55;98453.16;;;16.38;46.95
38530;BME280;24301;54.332;48.386;2023-09-08T06:35:22;98461.25;;;16.55;46.48
38530;BME280;24301;54.332;48.386;2023-09-08T06:37:48;98465.13;;;16.66;46.41
38530;BME280;24301;54.332;48.386;2023-09-08T06:40:14;98461.47;;;16.69;46.19
38530;BME280;24301;54.332;48.386;2023-09-08T06:42:40;98455.66;;;16.61;46.10
38530;BME280;24301;54.332;48.386;2023-09-08T06:45:12;98458.72;;;16.71;45.74
38530;BME280;24301;54.332;48.386;2023-09-08T06:47:39;98459.88;;;16.84;45.24
38530;BME280;24301;54.332;48.386;2023-09-08T06:50:05;98464.66;;;16.76;45.24
38530;BME280;24301;54.332;48.386;2023-09-08T06:52:32;98456.38;;;16.64;44.98
38530;BME280;24301;54.332;48.386;2023-09-08T06:54:58;98455.88;;;16.75;44.85
38530;BME280;24301;54.332;48.386;2023-09-08T06:57:24;98453.00;;;16.80;44.59
38530;BME280;24301;54.332;48.386;2023-09-08T06:59:51;98450.44;;;16.96;44.71
38530;BME280;24301;54.332;48.386;2023-09-08T07:02:17;98454.03;;;17.14;44.00
38530;BME280;24301;54.332;48.386;2023-09-08T07:04:45;98453.53;;;16.87;43.84
38530;BME280;24301;54.332;48.386;2023-09-08T07:07:11;98453.88;;;16.61;44.54
38530;BME280;24301;54.332;48.386;2023-09-08T07:09:39;98454.16;;;16.36;44.72
38530;BME280;24301;54.332;48.386;2023-09-08T07:12:06;98449.97;;;15.92;45.33
38530;BME280;24301;54.332;48.386;2023-09-08T07:14:33;98454.88;;;15.60;45.57
38530;BME280;24301;54.332;48.386;2023-09-08T07:16:59;98454.19;;;15.34;46.42
38530;BME280;24301;54.332;48.386;2023-09-08T07:19:26;98454.78;;;14.98;47.24
38530;BME280;24301;54.332;48.386;2023-09-08T07:21:53;98453.47;;;14.63;47.98
38530;BME280;24301;54.332;48.386;2023-09-08T07:24:20;98451.41;;;14.48;48.59
38530;BME280;24301;54.332;48.386;2023-09-08T07:26:46;98459.84;;;14.35;49.01
38530;BME280;24301;54.332;48.386;2023-09-08T07:29:15;98461.00;;;14.28;48.98
38530;BME280;24301;54.332;48.386;2023-09-08T07:31:41;98455.63;;;14.30;48.87
38530;BME280;24301;54.332;48.386;2023-09-08T07:34:07;98450.91;;;14.38;48.70
38530;BME280;24301;54.332;48.386;2023-09-08T07:36:36;98454.97;;;14.47;48.24
38530;BME280;24301;54.332;48.386;2023-09-08T07:39:03;98446.34;;;14.65;48.12
38530;BME280;24301;54.332;48.386;2023-09-08T07:41:29;98445.25;;;15.16;47.54
38530;BME280;24301;54.332;48.386;2023-09-08T07:43:55;98445.38;;;15.75;46.60
38530;BME280;24301;54.332;48.386;2023-09-08T07:46:24;98450.81;;;16.32;45.46
38530;BME280;24301;54.332;48.386;2023-09-08T07:48:50;98443.09;;;17.38;44.07
38530;BME280;24301;54.332;48.386;2023-09-08T07:51:15;98443.22;;;17.52;43.04
38530;BME280;24301;54.332;48.386;2023-09-08T07:53:41;98446.44;;;18.60;41.93
38530;BME280;24301;54.332;48.386;2023-09-08T07:56:07;98445.00;;;22.13;38.25
38530;BME280;24301;54.332;48.386;2023-09-08T07:58:33;98433.44;;;24.85;33.95
38530;BME280;24301;54.332;48.386;2023-09-08T08:01:00;98430.13;;;24.93;31.03
38530;BME280;24301;54.332;48.386;2023-09-08T08:03:26;98431.38;;;23.28;32.73
38530;BME280;24301;54.332;48.386;2023-09-08T08:05:51;98431.94;;;21.95;34.00
38530;BME280;24301;54.332;48.386;2023-09-08T08:08:17;98428.75;;;20.96;35.40
38530;BME280;24301;54.332;48.386;2023-09-08T08:10:45;98420.91;;;20.09;36.79
38530;BME280;24301;54.332;48.386;2023-09-08T08:13:11;98427.81;;;19.23;37.86
38530;BME280;24301;54.332;48.386;2023-09-08T08:15:38;98432.00;;;18.64;38.73
38530;BME280;24301;54.332;48.386;2023-09-08T08:18:08;98424.44;;;18.73;38.98
38530;BME280;24301;54.332;48.386;2023-09-08T08:20:37;98418.84;;;18.93;39.08
38530;BME280;24301;54.332;48.386;2023-09-08T08:23:05;98438.09;;;18.66;39.38
38530;BME280;24301;54.332;48.386;2023-09-08T08:25:32;98430.00;;;18.68;39.41
38530;BME280;24301;54.332;48.386;2023-09-08T08:27:58;98437.25;;;18.82;39.50
38530;BME280;24301;54.332;48.386;2023-09-08T08:30:27;98421.78;;;18.73;39.61
38530;BME280;24301;54.332;48.386;2023-09-08T08:32:54;98431.06;;;18.33;40.52
38530;BME280;24301;54.332;48.386;2023-09-08T08:35:20;98428.88;;;18.08;40.83
38530;BME280;24301;54.332;48.386;2023-09-08T08:37:46;98429.44;;;17.79;41.15
38530;BME280;24301;54.332;48.386;2023-09-08T08:40:12;98439.19;;;17.28;41.46
38530;BME280;24301;54.332;48.386;2023-09-08T08:42:39;98429.91;;;16.63;42.07
38530;BME280;24301;54.332;48.386;2023-09-08T08:45:06;98436.03;;;16.07;43.48
38530;BME280;24301;54.332;48.386;2023-09-08T08:47:33;98439.16;;;15.76;44.38
38530;BME280;24301;54.332;48.386;2023-09-08T08:50:02;98440.56;;;15.64;44.99
38530;BME280;24301;54.332;48.386;2023-09-08T08:52:31;98446.38;;;15.51;45.61
38530;BME280;24301;54.332;48.386;2023-09-08T08:54:57;98443.13;;;15.65;45.88
38530;BME280;24301;54.332;48.386;2023-09-08T08:57:24;98444.00;;;15.66;45.85
38530;BME280;24301;54.332;48.386;2023-09-08T08:59:53;98447.84;;;15.59;46.24
38530;BME280;24301;54.332;48.386;2023-09-08T09:02:21;98448.22;;;15.49;46.22
38530;BME280;24301;54.332;48.386;2023-09-08T09:04:48;98447.75;;;15.60;46.43
38530;BME280;24301;54.332;48.386;2023-09-08T09:07:15;98449.66;;;15.77;46.15
38530;BME280;24301;54.332;48.386;2023-09-08T09:09:43;98452.56;;;15.93;45.94
38530;BME280;24301;54.332;48.386;2023-09-08T09:12:08;98441.66;;;16.00;45.71
38530;BME280;24301;54.332;48.386;2023-09-08T09:14:34;98444.47;;;16.16;45.34
38530;BME280;24301;54.332;48.386;2023-09-08T09:17:01;98444.28;;;16.40;44.63
38530;BME280;24301;54.332;48.386;2023-09-08T09:19:30;98441.47;;;16.43;44.68
38530;BME280;24301;54.332;48.386;2023-09-08T09:22:00;98449.28;;;16.46;44.29
38530;BME280;24301;54.332;48.386;2023-09-08T09:24:40;98448.44;;;16.45;44.21
38530;BME280;24301;54.332;48.386;2023-09-08T09:27:07;98449.38;;;16.44;44.12
38530;BME280;24301;54.332;48.386;2023-09-08T09:29:35;98446.34;;;16.52;44.11
38530;BME280;24301;54.332;48.386;2023-09-08T09:32:10;98446.53;;;16.66;43.97
38530;BME280;24301;54.332;48.386;2023-09-08T09:34:36;98446.50;;;16.68;43.96
38530;BME280;24301;54.332;48.386;2023-09-08T09:37:12;98445.84;;;16.44;44.01
38530;BME280;24301;54.332;48.386;2023-09-08T09:39:38;98448.44;;;16.45;44.01
38530;BME280;24301;54.332;48.386;2023-09-08T09:42:04;98448.28;;;16.48;44.03
38530;BME280;24301;54.332;48.386;2023-09-08T09:44:31;98449.38;;;16.44;43.84
38530;BME280;24301;54.332;48.386;2023-09-08T09:47:00;98451.53;;;16.55;44.05
38530;BME280;24301;54.332;48.386;2023-09-08T09:49:26;98438.53;;;16.68;43.69
38530;BME280;24301;54.332;48.386;2023-09-08T09:51:58;98452.53;;;16.89;43.44
38530;BME280;24301;54.332;48.386;2023-09-08T09:54:23;98440.03;;;17.11;43.04
38530;BME280;24301;54.332;48.386;2023-09-08T09:56:49;98439.88;;;17.14;42.85
38530;BME280;24301;54.332;48.386;2023-09-08T09:59:17;98440.22;;;17.25;42.49
38530;BME280;24301;54.332;48.386;2023-09-08T10:01:43;98450.91;;;17.41;42.28
38530;BME280;24301;54.332;48.386;2023-09-08T10:04:10;98446.22;;;17.46;41.60
38530;BME280;24301;54.332;48.386;2023-09-08T10:06:39;98446.16;;;17.48;41.29
38530;BME280;24301;54.332;48.386;2023-09-08T10:09:06;98434.97;;;17.59;40.95
38530;BME280;24301;54.332;48.386;2023-09-08T10:11:47;98436.59;;;17.61;40.40
38530;BME280;24301;54.332;48.386;2023-09-08T10:14:14;98443.50;;;17.48;40.80
38530;BME280;24301;54.332;48.386;2023-09-08T10:16:43;98448.63;;;17.16;40.86
38530;BME280;24301;54.332;48.386;2023-09-08T10:19:16;98446.78;;;17.18;41.15
38530;BME280;24301;54.332;48.386;2023-09-08T10:21:45;98448.84;;;17.29;40.94
38530;BME280;24301;54.332;48.386;2023-09-08T10:24:15;98444.81;;;17.39;40.76
38530;BME280;24301;54.332;48.386;2023-09-08T10:27:03;98439.91;;;17.49;40.26
38530;BME280;24301;54.332;48.386;2023-09-08T10:29:31;98443.72;;;17.61;40.10
38530;BME280;24301;54.332;48.386;2023-09-08T10:31:59;98439.63;;;17.71;39.86
38530;BME280;24301;54.332;48.386;2023-09-08T10:34:26;98434.09;;;17.58;39.78
38530;BME280;24301;54.332;48.386;2023-09-08T10:36:53;98433.72;;;17.48;39.80
38530;BME280;24301;54.332;48.386;2023-09-08T10:39:35;98433.97;;;17.26;40.05
38530;BME280;24301;54.332;48.386;2023-09-08T10:47:22;98435.59;;;17.46;39.93
38530;BME280;24301;54.332;48.386;2023-09-08T10:49:50;98430.16;;;17.32;39.87
38530;BME280;24301;54.332;48.386;2023-09-08T10:52:23;98434.81;;;17.09;40.13
38530;BME280;24301;54.332;48.386;2023-09-08T10:54:53;98433.09;;;16.89;40.67
38530;BME280;24301;54.332;48.386;2023-09-08T10:57:24;98426.59;;;16.77;40.72
38530;BME280;24301;54.332;48.386;2023-09-08T10:59:59;98433.06;;;16.71;40.77
38530;BME280;24301;54.332;48.386;2023-09-08T11:02:36;98434.38;;;16.62;41.50
38530;BME280;24301;54.332;48.386;2023-09-08T11:05:07;98431.94;;;16.38;42.45
38530;BME280;24301;54.332;48.386;2023-09-08T11:07:38;98435.25;;;16.05;43.54
38530;BME280;24301;54.332;48.386;2023-09-08T11:10:08;98455.50;;;15.86;44.72
38530;BME280;24301;54.332;48.386;2023-09-08T11:12:35;98449.44;;;15.63;44.93
38530;BME280;24301;54.332;48.386;2023-09-08T11:15:03;98455.66;;;15.41;45.86
38530;BME280;24301;54.332;48.386;2023-09-08T11:17:33;98448.69;;;15.18;46.41
38530;BME280;24301;54.332;48.386;2023-09-08T11:20:01;98459.03;;;15.02;46.80
38530;BME280;24301;54.332;48.386;2023-09-08T11:22:34;98450.00;;;14.85;47.23
38530;BME280;24301;54.332;48.386;2023-09-08T11:25:01;98445.06;;;14.76;47.57
38530;BME280;24301;54.332;48.386;2023-09-08T11:27:31;98450.94;;;14.84;48.02
38530;BME280;24301;54.332;48.386;2023-09-08T11:29:57;98449.88;;;14.88;47.98
38530;BME280;24301;54.332;48.386;2023-09-08T11:32:24;98456.31;;;15.03;47.89
38530;BME280;24301;54.332;48.386;2023-09-08T11:34:50;98449.44;;;14.99;47.79
38530;BME280;24301;54.332;48.386;2023-09-08T11:37:20;98452.91;;;14.79;48.34
38530;BME280;24301;54.332;48.386;2023-09-08T11:39:46;98453.75;;;14.79;48.18
38530;BME280;24301;54.332;48.386;2023-09-08T11:42:14;98455.22;;;14.87;48.34
38530;BME280;24301;54.332;48.386;2023-09-08T11:44:41;98454.38;;;14.86;48.29
38530;BME280;24301;54.332;48.386;2023-09-08T11:47:10;98465.63;;;14.91;48.45
38530;BME280;24301;54.332;48.386;2023-09-08T11:49:37;98464.56;;;14.96;48.13
38530;BME280;24301;54.332;48.386;2023-09-08T11:52:04;98467.88;;;15.01;48.09
38530;BME280;24301;54.332;48.386;2023-09-08T11:54:31;98462.50;;;15.04;48.14
38530;BME280;24301;54.332;48.386;2023-09-08T11:56:59;98466.25;;;14.98;48.49
38530;BME280;24301;54.332;48.386;2023-09-08T11:59:27;98461.06;;;14.95;48.82
38530;BME280;24301;54.332;48.386;2023-09-08T12:01:55;98463.84;;;14.92;49.10
38530;BME280;24301;54.332;48.386;2023-09-08T12:04:22;98453.00;;;14.76;49.47
38530;BME280;24301;54.332;48.386;2023-09-08T12:06:54;98470.31;;;14.61;50.16
38530;BME280;24301;54.332;48.386;2023-09-08T12:09:23;98457.66;;;14.69;50.07
38530;BME280;24301;54.332;48.386;2023-09-08T12:11:49;98463.91;;;14.66;50.01
38530;BME280;24301;54.332;48.386;2023-09-08T12:14:16;98466.72;;;14.40;50.71
38530;BME280;24301;54.332;48.386;2023-09-08T12:16:44;98454.59;;;14.10;51.45
38530;BME280;24301;54.332;48.386;2023-09-08T12:19:29;98458.03;;;14.12;52.31
38530;BME280;24301;54.332;48.386;2023-09-08T12:22:02;98466.88;;;14.11;51.76
38530;BME280;24301;54.332;48.386;2023-09-08T12:27:14;98454.88;;;14.26;51.69
38530;BME280;24301;54.332;48.386;2023-09-08T12:29:55;98459.59;;;14.42;51.62
38530;BME280;24301;54.332;48.386;2023-09-08T12:32:25;98453.63;;;14.36;51.26
38530;BME280;24301;54.332;48.386;2023-09-08T12:34:52;98447.88;;;14.25;51.25
38530;BME280;24301;54.332;48.386;2023-09-08T12:37:22;98451.78;;;14.15;51.88
38530;BME280;24301;54.332;48.386;2023-09-08T12:39:49;98454.31;;;14.18;51.41
38530;BME280;24301;54.332;48.386;2023-09-08T12:42:15;98455.69;;;14.04;51.54
38530;BME280;24301;54.332;48.386;2023-09-08T12:44:41;98454.41;;;13.91;51.91
38530;BME280;24301;54.332;48.386;2023-09-08T12:47:09;98453.53;;;13.67;52.31
38530;BME280;24301;54.332;48.386;2023-09-08T12:49:35;98464.88;;;13.43;52.98
38530;BME280;24301;54.332;48.386;2023-09-08T12:52:01;98461.84;;;13.29;53.77
38530;BME280;24301;54.332;48.386;2023-09-08T12:54:27;98470.28;;;13.12;53.92
38530;BME280;24301;54.332;48.386;2023-09-08T12:56:53;98463.81;;;12.95;54.39
38530;BME280;24301;54.332;48.386;2023-09-08T12:59:19;98464.25;;;12.81;54.45
38530;BME280;24301;54.332;48.386;2023-09-08T13:01:45;98462.69;;;12.74;55.28
38530;BME280;24301;54.332;48.386;2023-09-08T13:04:11;98463.09;;;12.61;55.81
38530;BME280;24301;54.332;48.386;2023-09-08T13:06:36;98457.03;;;12.58;56.32
38530;BME280;24301;54.332;48.386;2023-09-08T13:09:02;98466.66;;;12.59;56.25